createdAt,value
2019-03-31T00:00:18.171Z,36.00
2019-03-31T00:02:48.299Z,36.00
2019-03-31T00:05:17.910Z,36.20
2019-03-31T00:07:47.627Z,36.00
2019-03-31T00:10:17.442Z,36.30
2019-03-31T00:12:47.087Z,36.30
2019-03-31T00:15:16.871Z,36.50
2019-03-31T00:17:46.593Z,36.50
2019-03-31T00:20:16.379Z,36.60
2019-03-31T00:22:46.024Z,36.60
2019-03-31T00:25:15.812Z,36.60
2019-03-31T00:27:45.502Z,36.60
2019-03-31T00:30:16.379Z,36.80
2019-03-31T00:32:46.103Z,36.80
2019-03-31T00:35:15.773Z,36.80
2019-03-31T00:37:45.373Z,36.80
2019-03-31T00:40:15.162Z,36.90
2019-03-31T00:42:44.822Z,37.10
2019-03-31T00:45:14.552Z,37.10
2019-03-31T00:47:44.198Z,37.10
2019-03-31T00:50:13.886Z,37.10
2019-03-31T00:52:43.648Z,37.20
2019-03-31T00:55:13.325Z,37.20
2019-03-31T00:57:43.246Z,37.40
2019-03-31T01:00:16.544Z,37.40
2019-03-31T01:02:46.635Z,37.50
2019-03-31T01:05:16.307Z,37.60
2019-03-31T01:07:46.637Z,37.60
2019-03-31T01:10:16.405Z,37.80
2019-03-31T01:12:46.295Z,37.90
2019-03-31T01:15:17.816Z,38.10
2019-03-31T01:17:49.050Z,38.20
2019-03-31T01:20:18.838Z,38.40
2019-03-31T01:22:48.561Z,38.50
2019-03-31T01:25:19.669Z,38.70
2019-03-31T01:27:49.688Z,38.70
2019-03-31T01:30:20.367Z,38.80
2019-03-31T01:32:50.192Z,39.00
2019-03-31T01:35:20.165Z,39.10
2019-03-31T01:37:49.909Z,39.30
2019-03-31T01:40:19.797Z,39.40
2019-03-31T01:42:49.500Z,39.60
2019-03-31T01:45:19.425Z,39.60
2019-03-31T01:47:49.013Z,39.90
2019-03-31T01:50:19.194Z,39.90
2019-03-31T01:52:48.832Z,40.00
2019-03-31T01:55:18.908Z,40.00
2019-03-31T01:57:48.510Z,40.00
2019-03-31T02:00:27.397Z,40.00
2019-03-31T02:02:57.173Z,40.00
2019-03-31T02:05:26.927Z,40.00
2019-03-31T02:07:56.719Z,40.20
2019-03-31T02:10:26.387Z,40.30
2019-03-31T02:12:56.050Z,40.30
2019-03-31T02:15:25.716Z,40.50
2019-03-31T02:17:55.872Z,40.50
2019-03-31T02:20:25.616Z,40.50
2019-03-31T02:22:55.315Z,40.50
2019-03-31T02:25:25.061Z,40.60
2019-03-31T02:27:54.757Z,40.60
2019-03-31T02:30:24.470Z,40.50
2019-03-31T02:32:54.164Z,40.60
2019-03-31T02:35:23.842Z,40.60
2019-03-31T02:37:53.512Z,40.50
2019-03-31T02:40:23.288Z,40.50
2019-03-31T02:42:52.974Z,40.50
2019-03-31T02:45:22.734Z,40.50
2019-03-31T02:47:52.487Z,40.50
2019-03-31T02:50:34.129Z,40.50
2019-03-31T02:53:03.865Z,40.60
2019-03-31T02:55:33.676Z,40.60
2019-03-31T02:58:03.416Z,40.60
2019-03-31T03:00:33.396Z,40.60
2019-03-31T03:03:04.768Z,40.60
2019-03-31T03:05:35.264Z,40.60
2019-03-31T03:08:06.108Z,40.60
2019-03-31T03:10:36.969Z,40.70
2019-03-31T03:13:09.344Z,40.90
2019-03-31T03:15:44.907Z,41.00
2019-03-31T03:18:14.626Z,40.90
2019-03-31T03:20:44.408Z,41.00
2019-03-31T03:23:14.539Z,41.00
2019-03-31T03:25:55.738Z,40.90
2019-03-31T03:28:17.068Z,41.20
2019-03-31T03:30:46.985Z,41.20
2019-03-31T03:33:18.180Z,41.20
2019-03-31T03:35:48.054Z,41.20
2019-03-31T03:38:17.762Z,41.30
2019-03-31T03:40:47.498Z,41.30
2019-03-31T03:43:17.136Z,41.30
2019-03-31T03:45:46.826Z,41.50
2019-03-31T03:48:16.562Z,41.50
2019-03-31T03:50:46.169Z,41.50
2019-03-31T03:53:15.858Z,41.50
2019-03-31T03:55:45.607Z,41.50
2019-03-31T03:58:15.325Z,41.50
2019-03-31T04:00:44.950Z,41.60
2019-03-31T04:03:29.151Z,41.80
2019-03-31T04:05:46.020Z,41.60
2019-03-31T04:08:15.790Z,41.80
2019-03-31T04:10:48.493Z,41.80
2019-03-31T04:13:18.111Z,41.90
2019-03-31T04:15:47.979Z,42.10
2019-03-31T04:18:17.641Z,42.20
2019-03-31T04:20:47.316Z,42.20
2019-03-31T04:23:16.942Z,42.20
2019-03-31T04:25:46.661Z,42.20
2019-03-31T04:28:16.338Z,42.40
2019-03-31T04:30:46.033Z,42.40
2019-03-31T04:33:15.831Z,42.40
2019-03-31T04:35:45.493Z,42.50
2019-03-31T04:38:15.164Z,42.50
2019-03-31T04:40:44.813Z,42.50
2019-03-31T04:43:14.818Z,42.70
2019-03-31T04:45:44.509Z,42.70
2019-03-31T04:48:14.149Z,42.70
2019-03-31T04:50:44.033Z,42.70
2019-03-31T04:53:13.759Z,42.80
2019-03-31T04:55:43.520Z,42.80
2019-03-31T04:58:13.177Z,43.00
2019-03-31T05:00:42.891Z,42.80
2019-03-31T05:03:12.625Z,42.80
2019-03-31T05:05:42.314Z,42.80
2019-03-31T05:08:12.058Z,42.80
2019-03-31T05:10:42.086Z,42.70
2019-03-31T05:13:11.726Z,42.80
2019-03-31T05:15:41.703Z,43.00
2019-03-31T05:18:11.355Z,43.10
2019-03-31T05:20:41.088Z,43.00
2019-03-31T05:23:10.777Z,43.00
2019-03-31T05:25:40.398Z,43.00
2019-03-31T05:28:10.207Z,42.80
2019-03-31T05:30:39.923Z,42.80
2019-03-31T05:33:09.630Z,42.70
2019-03-31T05:35:39.335Z,42.70
2019-03-31T05:38:09.121Z,42.70
2019-03-31T05:40:58.157Z,42.70
2019-03-31T05:43:27.920Z,42.50
2019-03-31T05:45:57.671Z,42.50
2019-03-31T05:48:27.330Z,42.40
2019-03-31T05:50:57.311Z,42.40
2019-03-31T05:53:26.943Z,42.40
2019-03-31T05:55:56.848Z,42.40
2019-03-31T05:58:26.565Z,42.40
2019-03-31T06:00:56.261Z,42.40
2019-03-31T06:03:25.893Z,42.40
2019-03-31T06:05:55.497Z,42.40
2019-03-31T06:08:25.290Z,42.10
2019-03-31T06:10:54.920Z,42.20
2019-03-31T06:13:24.549Z,42.10
2019-03-31T06:15:54.255Z,41.90
2019-03-31T06:18:24.152Z,41.90
2019-03-31T06:20:53.884Z,41.90
2019-03-31T06:23:23.650Z,41.90
2019-03-31T06:25:53.373Z,42.10
2019-03-31T06:28:23.076Z,41.80
2019-03-31T06:30:52.765Z,41.90
2019-03-31T06:33:22.532Z,41.80
2019-03-31T06:35:52.364Z,41.00
2019-03-31T06:38:22.293Z,40.20
2019-03-31T06:40:56.358Z,39.10
2019-03-31T06:43:45.417Z,38.40
2019-03-31T06:46:15.226Z,37.20
2019-03-31T06:48:45.002Z,36.20
2019-03-31T06:51:17.091Z,35.10
2019-03-31T06:53:46.272Z,34.20
2019-03-31T06:56:16.002Z,33.40
2019-03-31T06:58:45.724Z,32.80
2019-03-31T07:01:15.500Z,32.50
2019-03-31T07:03:45.320Z,31.70
2019-03-31T07:06:14.988Z,30.70
2019-03-31T07:08:44.737Z,30.10
2019-03-31T07:11:14.548Z,29.50
2019-03-31T07:13:44.284Z,29.10
2019-03-31T07:16:14.958Z,28.10
2019-03-31T07:19:05.057Z,27.80
2019-03-31T07:21:35.057Z,27.20
2019-03-31T07:24:04.777Z,26.80
2019-03-31T07:26:34.567Z,26.50
2019-03-31T07:29:04.695Z,26.00
2019-03-31T07:31:34.595Z,25.80
2019-03-31T07:34:04.653Z,26.50
2019-03-31T07:36:36.093Z,26.80
2019-03-31T07:39:07.306Z,27.10
2019-03-31T07:41:38.826Z,27.90
2019-03-31T07:44:10.132Z,28.00
2019-03-31T07:46:39.943Z,28.20
2019-03-31T07:49:15.611Z,28.30
2019-03-31T07:51:45.402Z,28.70
2019-03-31T07:54:15.194Z,28.70
2019-03-31T07:56:45.089Z,28.40
2019-03-31T07:59:15.158Z,28.50
2019-03-31T08:01:46.667Z,28.60
2019-03-31T08:04:16.540Z,28.60
2019-03-31T08:06:46.335Z,29.00
2019-03-31T08:09:16.033Z,28.70
2019-03-31T08:11:45.846Z,29.20
2019-03-31T08:14:15.719Z,29.80
2019-03-31T08:17:05.026Z,30.60
2019-03-31T08:19:34.716Z,30.80
2019-03-31T08:22:04.989Z,31.60
2019-03-31T08:24:43.897Z,31.60
2019-03-31T08:27:14.476Z,32.00
2019-03-31T08:29:44.178Z,32.20
2019-03-31T08:32:14.533Z,33.20
2019-03-31T08:34:44.302Z,33.40
2019-03-31T08:37:13.963Z,33.10
2019-03-31T08:39:43.943Z,32.90
2019-03-31T08:42:13.674Z,32.60
2019-03-31T08:44:43.820Z,30.60
2019-03-31T08:47:15.147Z,29.70
2019-03-31T08:49:44.771Z,29.70
2019-03-31T08:52:14.478Z,29.60
2019-03-31T08:54:44.511Z,30.40
2019-03-31T08:57:14.535Z,29.90
2019-03-31T08:59:44.309Z,30.30
2019-03-31T09:02:24.364Z,30.80
2019-03-31T09:04:54.415Z,31.00
2019-03-31T09:07:24.307Z,31.30
2019-03-31T09:09:54.963Z,31.10
2019-03-31T09:12:25.310Z,30.80
2019-03-31T09:14:55.248Z,31.10
2019-03-31T09:17:26.875Z,31.30
2019-03-31T09:19:57.490Z,31.60
2019-03-31T09:22:27.905Z,31.60
2019-03-31T09:24:57.858Z,31.90
2019-03-31T09:27:27.730Z,32.20
2019-03-31T09:29:57.618Z,32.30
2019-03-31T09:32:27.523Z,32.50
2019-03-31T09:34:57.307Z,32.80
2019-03-31T09:37:27.297Z,32.80
2019-03-31T09:39:57.104Z,32.90
2019-03-31T09:42:26.995Z,33.10
2019-03-31T09:44:56.784Z,33.20
2019-03-31T09:47:26.627Z,33.40
2019-03-31T09:49:56.518Z,33.50
2019-03-31T09:52:26.764Z,33.50
2019-03-31T09:54:56.465Z,33.70
2019-03-31T09:57:26.285Z,33.70
2019-03-31T09:59:55.977Z,34.10
2019-03-31T10:02:26.220Z,33.50
2019-03-31T10:05:00.085Z,33.70
2019-03-31T10:07:31.666Z,34.10
2019-03-31T10:10:01.580Z,33.80
2019-03-31T10:12:31.473Z,34.20
2019-03-31T10:15:01.262Z,34.00
2019-03-31T10:17:31.472Z,32.90
2019-03-31T10:20:01.236Z,32.30
2019-03-31T10:22:31.149Z,32.90
2019-03-31T10:25:00.839Z,32.00
2019-03-31T10:27:30.742Z,31.10
2019-03-31T10:30:00.488Z,30.60
2019-03-31T10:32:30.650Z,29.40
2019-03-31T10:35:00.543Z,28.70
2019-03-31T10:37:30.437Z,28.10
2019-03-31T10:40:00.373Z,28.70
2019-03-31T10:42:30.135Z,29.50
2019-03-31T10:45:00.172Z,30.40
2019-03-31T10:47:30.069Z,30.60
2019-03-31T10:49:59.736Z,29.70
2019-03-31T10:52:29.515Z,28.50
2019-03-31T10:54:59.306Z,28.30
2019-03-31T10:57:29.106Z,28.00
2019-03-31T10:59:58.945Z,28.20
2019-03-31T11:02:28.710Z,28.00
2019-03-31T11:04:58.418Z,28.20
2019-03-31T11:07:28.274Z,27.90
2019-03-31T11:09:57.998Z,27.20
2019-03-31T11:12:33.404Z,27.00
2019-03-31T11:15:03.711Z,27.10
2019-03-31T11:17:33.474Z,26.80
2019-03-31T11:20:03.339Z,26.70
2019-03-31T11:22:34.717Z,26.50
2019-03-31T11:25:19.922Z,26.60
2019-03-31T11:27:37.865Z,26.50
2019-03-31T11:30:09.935Z,26.20
2019-03-31T11:32:39.671Z,26.30
2019-03-31T11:35:09.498Z,26.00
2019-03-31T11:37:39.207Z,26.10
2019-03-31T11:40:09.703Z,25.80
2019-03-31T11:42:39.495Z,25.80
2019-03-31T11:45:09.850Z,25.60
2019-03-31T11:47:39.891Z,25.80
2019-03-31T11:50:10.840Z,25.40
2019-03-31T11:52:40.567Z,25.30
2019-03-31T11:55:10.888Z,25.60
2019-03-31T11:57:40.891Z,25.30
2019-03-31T12:00:14.883Z,25.40
2019-03-31T12:02:46.631Z,25.60
2019-03-31T12:05:19.077Z,25.40
2019-03-31T12:07:49.057Z,24.80
2019-03-31T12:10:20.057Z,24.90
2019-03-31T12:12:50.135Z,25.00
2019-03-31T12:15:19.920Z,24.60
2019-03-31T12:17:49.720Z,24.20
2019-03-31T12:20:19.899Z,23.90
2019-03-31T12:22:49.731Z,23.40
2019-03-31T12:25:20.065Z,23.20
2019-03-31T12:27:50.147Z,23.20
2019-03-31T12:30:22.979Z,23.40
2019-03-31T12:32:52.919Z,22.90
2019-03-31T12:35:22.846Z,22.30
2019-03-31T12:37:52.580Z,22.90
2019-03-31T12:40:30.335Z,23.50
2019-03-31T12:43:00.507Z,23.50
2019-03-31T12:45:30.199Z,23.80
2019-03-31T12:48:01.421Z,23.80
2019-03-31T12:50:31.463Z,24.00
2019-03-31T12:53:01.192Z,24.10
2019-03-31T12:55:30.981Z,24.20
2019-03-31T12:58:00.751Z,24.20
2019-03-31T13:00:30.568Z,24.30
2019-03-31T13:03:00.506Z,24.60
2019-03-31T13:05:30.359Z,25.10
2019-03-31T13:08:00.108Z,25.40
2019-03-31T13:10:30.067Z,25.60
2019-03-31T13:13:00.034Z,25.60
2019-03-31T13:15:29.843Z,25.70
2019-03-31T13:17:59.917Z,25.70
2019-03-31T13:20:29.914Z,25.60
2019-03-31T13:22:59.806Z,25.80
2019-03-31T13:25:29.622Z,25.80
2019-03-31T13:27:59.485Z,25.80
2019-03-31T13:30:29.346Z,25.90
2019-03-31T13:32:59.698Z,25.90
2019-03-31T13:35:31.250Z,26.00
2019-03-31T13:38:10.863Z,26.00
2019-03-31T13:40:32.507Z,26.00
2019-03-31T13:43:02.364Z,25.90
2019-03-31T13:45:32.447Z,25.90
2019-03-31T13:48:02.333Z,26.00
2019-03-31T13:50:32.020Z,26.00
2019-03-31T13:53:01.955Z,25.90
2019-03-31T13:55:31.701Z,26.00
2019-03-31T13:58:02.953Z,25.90
2019-03-31T14:00:35.664Z,25.90
2019-03-31T14:03:05.863Z,26.00
2019-03-31T14:05:35.570Z,26.00
2019-03-31T14:08:05.952Z,26.00
2019-03-31T14:10:35.745Z,26.00
2019-03-31T14:13:05.538Z,26.00
2019-03-31T14:15:35.273Z,26.00
2019-03-31T14:18:05.334Z,26.10
2019-03-31T14:20:35.288Z,26.10
2019-03-31T14:23:05.097Z,26.00
2019-03-31T14:25:34.783Z,26.00
2019-03-31T14:28:04.573Z,26.00
2019-03-31T14:30:34.604Z,26.00
2019-03-31T14:33:04.419Z,26.00
2019-03-31T14:35:37.686Z,26.00
2019-03-31T14:38:05.700Z,25.90
2019-03-31T14:40:35.509Z,25.90
2019-03-31T14:43:05.307Z,25.80
2019-03-31T14:45:37.585Z,25.60
2019-03-31T14:48:07.813Z,25.70
2019-03-31T14:50:38.245Z,25.70
2019-03-31T14:53:10.084Z,24.90
2019-03-31T14:55:39.910Z,25.60
2019-03-31T14:58:09.788Z,24.20
2019-03-31T15:00:39.695Z,24.90
2019-03-31T15:03:10.812Z,23.40
2019-03-31T15:05:40.700Z,24.30
2019-03-31T15:08:10.599Z,23.90
2019-03-31T15:10:41.488Z,22.10
2019-03-31T15:13:11.147Z,22.30
2019-03-31T15:15:41.046Z,23.70
2019-03-31T15:18:14.152Z,22.50
2019-03-31T15:20:43.970Z,22.90
2019-03-31T15:23:13.782Z,23.60
2019-03-31T15:25:43.842Z,23.40
2019-03-31T15:28:13.734Z,22.00
2019-03-31T15:30:43.598Z,21.80
2019-03-31T15:33:13.392Z,20.80
2019-03-31T15:35:43.400Z,20.30
2019-03-31T15:38:13.297Z,20.00
2019-03-31T15:40:43.113Z,19.60
2019-03-31T15:43:13.038Z,19.60
2019-03-31T15:45:42.880Z,19.50
2019-03-31T15:48:12.684Z,19.40
2019-03-31T15:50:42.565Z,19.40
2019-03-31T15:53:13.084Z,19.50
2019-03-31T15:55:42.923Z,19.90
2019-03-31T15:58:12.747Z,20.40
2019-03-31T16:00:45.703Z,20.30
2019-03-31T16:03:18.381Z,20.10
2019-03-31T16:05:48.281Z,20.50
2019-03-31T16:08:18.094Z,21.30
2019-03-31T16:10:48.303Z,21.10
2019-03-31T16:13:18.235Z,21.40
2019-03-31T16:15:48.193Z,21.40
2019-03-31T16:18:18.363Z,21.50
2019-03-31T16:20:48.344Z,21.20
2019-03-31T16:23:18.212Z,21.30
2019-03-31T16:25:52.756Z,22.80
2019-03-31T16:28:22.616Z,25.20
2019-03-31T16:30:52.463Z,23.20
2019-03-31T16:33:23.791Z,23.40
2019-03-31T16:35:54.295Z,21.90
2019-03-31T16:38:26.070Z,21.00
2019-03-31T16:40:55.996Z,20.80
2019-03-31T16:43:25.756Z,20.80
2019-03-31T16:45:55.692Z,20.20
2019-03-31T16:48:25.399Z,20.00
2019-03-31T16:50:55.093Z,19.90
2019-03-31T16:53:24.874Z,20.00
2019-03-31T16:55:54.675Z,20.10
2019-03-31T16:58:24.521Z,20.00
2019-03-31T17:00:54.417Z,19.70
2019-03-31T17:03:24.212Z,19.70
2019-03-31T17:05:54.296Z,19.70
2019-03-31T17:08:24.097Z,20.20
2019-03-31T17:10:53.741Z,20.70
2019-03-31T17:13:23.535Z,21.20
2019-03-31T17:15:53.265Z,21.70
2019-03-31T17:18:22.973Z,22.00
2019-03-31T17:21:12.053Z,22.50
2019-03-31T17:23:42.245Z,22.80
2019-03-31T17:26:12.042Z,23.20
2019-03-31T17:28:41.851Z,23.60
2019-03-31T17:31:11.698Z,23.90
2019-03-31T17:33:41.426Z,24.10
2019-03-31T17:36:11.297Z,24.40
2019-03-31T17:38:41.024Z,24.50
2019-03-31T17:41:10.800Z,24.70
2019-03-31T17:43:40.623Z,24.90
2019-03-31T17:46:10.637Z,25.20
2019-03-31T17:48:40.339Z,25.40
2019-03-31T17:51:11.784Z,25.70
2019-03-31T17:53:41.508Z,26.00
2019-03-31T17:56:11.309Z,26.20
2019-03-31T17:58:41.096Z,26.40
2019-03-31T18:01:10.913Z,26.60
2019-03-31T18:03:41.586Z,26.80
2019-03-31T18:06:12.119Z,27.00
2019-03-31T18:08:43.632Z,27.20
2019-03-31T18:11:15.214Z,27.30
2019-03-31T18:13:45.325Z,27.40
2019-03-31T18:16:17.215Z,27.50
2019-03-31T18:18:47.392Z,27.60
2019-03-31T18:21:26.860Z,27.80
2019-03-31T18:23:55.181Z,27.90
2019-03-31T18:26:25.036Z,28.00
2019-03-31T18:28:54.942Z,28.10
2019-03-31T18:31:24.749Z,28.20
2019-03-31T18:33:55.367Z,28.30
2019-03-31T18:36:44.493Z,28.40
2019-03-31T18:39:14.271Z,28.50
2019-03-31T18:41:43.927Z,28.50
2019-03-31T18:44:13.767Z,28.60
2019-03-31T18:46:43.537Z,28.70
2019-03-31T18:49:13.464Z,28.80
2019-03-31T18:51:45.830Z,28.90
2019-03-31T18:54:33.194Z,28.90
2019-03-31T18:57:10.389Z,28.90
2019-03-31T19:00:00.496Z,28.90
2019-03-31T19:02:36.848Z,29.00
2019-03-31T19:05:12.478Z,29.20
2019-03-31T19:07:45.671Z,29.30
2019-03-31T19:10:43.337Z,29.30
2019-03-31T19:13:12.982Z,29.10
2019-03-31T19:15:56.230Z,29.10
2019-03-31T19:18:31.323Z,29.00
2019-03-31T19:21:10.858Z,28.90
2019-03-31T19:23:50.900Z,28.70
2019-03-31T19:26:28.460Z,28.80
2019-03-31T19:29:02.974Z,28.80
2019-03-31T19:31:53.082Z,28.70
2019-03-31T19:34:36.694Z,28.70
2019-03-31T19:39:46.678Z,28.80
2019-03-31T19:42:23.962Z,28.80
2019-03-31T19:45:00.946Z,28.70
2019-03-31T19:47:48.816Z,28.60
2019-03-31T19:50:36.611Z,28.60
2019-03-31T19:53:23.573Z,28.70
2019-03-31T19:56:06.893Z,28.80
2019-03-31T19:58:29.262Z,28.90
2019-03-31T20:01:09.731Z,28.80
2019-03-31T20:03:47.219Z,28.70
2019-03-31T20:06:24.871Z,28.80
2019-03-31T20:08:59.223Z,28.90
2019-03-31T20:11:33.597Z,29.10
2019-03-31T20:14:20.123Z,29.10
2019-03-31T20:16:54.924Z,29.00
2019-03-31T20:19:45.183Z,29.00
2019-03-31T20:22:23.053Z,29.00
2019-03-31T20:24:57.488Z,29.00
2019-03-31T20:27:45.223Z,28.90
2019-03-31T20:30:33.178Z,28.80
2019-03-31T20:33:07.620Z,28.90
2019-03-31T20:35:42.188Z,28.90
2019-03-31T20:38:30.071Z,28.80
2019-03-31T20:41:07.270Z,28.90
2019-03-31T20:43:42.297Z,28.90
2019-03-31T20:46:12.769Z,28.70
2019-03-31T20:48:42.626Z,28.80
2019-03-31T20:51:12.529Z,28.80
2019-03-31T20:53:42.443Z,29.00
2019-03-31T20:56:12.626Z,29.00
2019-03-31T20:58:42.474Z,28.90
2019-03-31T21:01:12.268Z,28.90
2019-03-31T21:03:42.475Z,28.90
2019-03-31T21:06:12.266Z,29.00
2019-03-31T21:08:42.116Z,29.00
2019-03-31T21:11:11.781Z,28.80
2019-03-31T21:13:41.556Z,28.90
2019-03-31T21:16:11.637Z,28.90
2019-03-31T21:18:41.678Z,28.60
2019-03-31T21:21:11.552Z,28.80
2019-03-31T21:23:41.289Z,28.70
2019-03-31T21:26:11.131Z,28.80
2019-03-31T21:28:40.887Z,28.80
2019-03-31T21:31:10.514Z,28.80
2019-03-31T21:33:40.724Z,28.80
2019-03-31T21:36:10.460Z,28.90
2019-03-31T21:38:40.154Z,28.90
2019-03-31T21:41:10.039Z,28.80
2019-03-31T21:43:39.651Z,28.90
2019-03-31T21:46:09.421Z,28.80
2019-03-31T21:48:39.175Z,28.80
2019-03-31T21:51:08.907Z,28.80
2019-03-31T21:53:38.539Z,28.70
2019-03-31T21:56:08.167Z,28.80
2019-03-31T21:58:39.049Z,28.70
2019-03-31T22:01:09.302Z,28.60
2019-03-31T22:03:39.728Z,28.70
2019-03-31T22:06:09.911Z,28.70
2019-03-31T22:08:40.001Z,28.90
2019-03-31T22:11:10.027Z,28.70
2019-03-31T22:13:40.018Z,28.60
2019-03-31T22:16:10.188Z,28.90
2019-03-31T22:18:40.012Z,28.80
2019-03-31T22:21:09.918Z,28.90
2019-03-31T22:23:39.780Z,29.00
2019-03-31T22:26:09.752Z,28.80
2019-03-31T22:28:39.457Z,28.80
2019-03-31T22:31:09.231Z,28.90
2019-03-31T22:33:38.792Z,28.80
2019-03-31T22:36:24.449Z,28.90
2019-03-31T22:38:54.436Z,28.90
2019-03-31T22:41:24.201Z,28.90
2019-03-31T22:43:54.302Z,29.00
2019-03-31T22:46:24.072Z,29.10
2019-03-31T22:48:53.702Z,29.10
2019-03-31T22:51:23.316Z,29.00
2019-03-31T22:53:53.001Z,29.00
2019-03-31T22:56:22.829Z,28.90
2019-03-31T22:58:52.464Z,29.00
2019-03-31T23:01:22.206Z,29.10
2019-03-31T23:04:11.334Z,28.90
2019-03-31T23:06:41.353Z,29.00
2019-03-31T23:09:11.077Z,29.00
2019-03-31T23:11:40.764Z,29.00
2019-03-31T23:14:10.684Z,28.90
2019-03-31T23:16:40.369Z,28.90
2019-03-31T23:19:10.089Z,29.00
2019-03-31T23:21:39.700Z,29.00
2019-03-31T23:24:09.393Z,28.80
2019-03-31T23:26:39.013Z,28.90
2019-03-31T23:29:08.684Z,29.10
2019-03-31T23:31:38.383Z,29.10
2019-03-31T23:34:08.058Z,29.10
2019-03-31T23:36:37.836Z,29.00
2019-03-31T23:39:08.078Z,29.00
2019-03-31T23:41:38.115Z,28.90
2019-03-31T23:44:07.724Z,29.10
2019-03-31T23:46:37.450Z,29.10
2019-03-31T23:49:07.059Z,29.10
2019-03-31T23:51:36.715Z,29.10
2019-03-31T23:54:06.408Z,29.10
2019-03-31T23:56:36.067Z,29.10
2019-03-31T23:59:05.679Z,29.20
